Grandin, MO (63943)

4:17 PM CDT on May 23, 2019 (GMT -0500)
K hwy | | Change Station
Active Advisory: Lake Wind Advisory

Elev 768 ft 36.87 °N, 90.75 °W | Updated 6 seconds ago

Clear
Clear
86.2 °F
Feels Like 99 °F
N
3
Wind Variable Wind from SSE
Gusts 7.0 mph

Today
High -- | Low -- °F
--% Chance of Precip.
Yesterday
High -- | Low -- °F
Precip. -- in
Pressure 30.06 in
Visibility 10.0 miles
Clouds Clear
Heat Index 99 °F
Dew Point 78 °F
Humidity 77%
Rainfall 0.00 in
Snow Depth Not available.
5:50 AM 8:10 PM
Waning Gibbous, 75% visible
METAR KPOF 232053Z AUTO 19013G21KT 10SM CLR 30/23 A3007 RMK AO2 SLP177 T03000233 58019
Pressure 30.06 in
Visibility 10.0 miles
Clouds Clear
Heat Index 99 °F
Dew Point 78 °F
Humidity 77%
Rainfall 0.00 in
Snow Depth Not available.
5:50 AM 8:10 PM
Waning Gibbous, 75% visible
METAR KPOF 232053Z AUTO 19013G21KT 10SM CLR 30/23 A3007 RMK AO2 SLP177 T03000233 58019

Get Your Daily Forecast Email!

Thanks for signing up!

Be on the lookout for a verification email in your inbox.

You'll start receiving severe weather alerts in your inbox..

×

10-Day Weather Forecast

Almanac

Astronomy

May. 23, 2019 Rise Set
Actual Time
Civil Twilight
Nautical Twilight
Astronomical Twilight
Moon
Length of Visible Light
Length of Day
Tomorrow will be .
, % of the Moon is Illuminated

Today's Extremes

State Highs State Lows

Community

WunderPhotos

Category 6

Welcome to Category 6. This is the collective home for Weather Underground's featured writeups by Dr. Jeff Masters (right), Bob Henson (left), Chris Burt, and other regular contributors.

Nearby

Air Quality

  Air Quality AQ Index Pollutant
Not available.

Snow Depth

Station Depth Elevation

Earthquake Activity

City Distance Mag. Time & Date
Minimum magnitude displayed is 2.5.

Coastal Water Temperatures

Place Temperature

Stations

Nearby Weather Stations

Station Location Temp. Windchill Dew Point Humidity Wind Precip. Elev Updated Type
                   

Watches & Warnings

Lake Wind Advisory
Issued: 12:08 PM CDT May. 23, 2019 – National Weather Service

... Lake Wind Advisory in effect until 6 PM CDT this evening...

The National Weather Service in Paducah has issued a lake Wind
Advisory, which is in effect until 6 PM CDT this evening.

* Timing... this afternoon.

* Winds... sustained near 15 mph with gusts 20 to 30 mph.

* Impacts... small water craft may encounter choppy waters.

Precautionary/preparedness actions...

A lake Wind Advisory indicates that winds will cause rough chop
on area lakes. Small boats will be especially prone to capsizing.